Aeroporto :
LOGIN :

Iscrizione | Disclaimer

   EN    FR    IT 

 










Sommario :    VFR   VFR Marginale   IFR   IFR Intensivo   IFR Molto Intensivo
Visibilità : 
Base nubi : 
>= 8 km
>= 3000ft
5 / 8 km
1000 / 3000 ft
1500m / 5 km
500 / 1000 ft
800 / 1500m
200 / 500 ft
< 800m
< 200 ft
Simboli :   Temporali  Nebbia  Neve Forte  Precipitazioni Forti  Vento > 20 kt
SIGMETs :   Varie  Temporali  Ghiacco  Turbolenza  Onda orograficha  Ceneri Vulcaniche







- Altitudine del aeroporto : 1568 ft


ETSB - Büchel AB

ULTIMO METAR :
  • 120520Z 31002KT 2000 BR OVC004 M01/M01 Q1022 YLO YLO TEMPO RED

METARs OBSOLETI :
  • 120420Z 32001KT 0600 FZFG SCT008 M01/M02 Q1022 RED
  • 120407Z 31002KT 0600 FZFG SCT008 M02/M02 Q1022 RED
  • 120320Z AUTO 30002KT 1100 // ////// M01/M02 Q1022 ///

TAF TAF ETSB
Valido dal 12 a 06 ore il 12 a 15 ore UTC


120515Z 1206/1215 33002KT 2000 BR FEW002 BKN004
TEMPO 1206/1210 VRB02KT 0500 FZFG BKN001 OVC003 BY ETGL
Nessun NOTAM noto per questo aeroporto.



MetMap, La meteo Aeronautica in un colpo d'occhio ! - Copyright ORBIFLY Dicembre 2007 - Disclaimer

ORBIFLY MET'MAP TEAM :

Programmazione e sviluppo : Alexandra Zaïnal
Concezione e sviluppo : Baudouin d'Aumeries
Co-Programmazione e sviluppo : Marc-Olivier Méhu
Supporto tecnico e logistico : Manuel Goepfert
Aiuto per la traduzione : Arnaldo La Scala

Contatto : metmap@orbifly.com




FONTI E CREDITI :

   NOAA